Time;durP1;ratioP1;P1;durP2;ratioP2;P2;SDS_P1;SDS_P2;PMS_P1;PMS_P2;Temp;Humidity;BMP_temperature;BMP_pressure;BME280_temperature;BME280_humidity;BME280_pressure;Samples;Min_cycle;Max_cycle;Signal;HPM_P1;HPM_P2
2021/01/06 00:00:51;;;;;;;25.12;17.70;;;;;;;2.71;74.77;100690.56;1727030;81;21168;-44
2021/01/06 00:03:22;;;;;;;20.82;16.25;;;;;;;2.72;74.77;100687.47;1709159;83;21137;-44
2021/01/06 00:05:56;;;;;;;21.48;15.85;;;;;;;2.72;74.72;100692.74;1733404;80;21580;-44
2021/01/06 00:08:24;;;;;;;21.55;16.42;;;;;;;2.72;74.76;100693.63;1738371;80;21161;-43
2021/01/06 00:10:54;;;;;;;22.87;16.48;;;;;;;2.73;74.74;100691.86;1742522;80;21137;-44
2021/01/06 00:13:22;;;;;;;26.30;16.05;;;;;;;2.71;74.68;100689.25;1747459;80;21344;-40
2021/01/06 00:15:50;;;;;;;20.75;16.23;;;;;;;2.68;74.79;100693.27;1709284;81;21162;-42
2021/01/06 00:18:19;;;;;;;24.15;17.30;;;;;;;2.71;74.82;100689.70;1702187;82;21193;-46
2021/01/06 00:20:48;;;;;;;21.25;17.07;;;;;;;2.72;74.81;100686.16;1726466;81;21152;-44
2021/01/06 00:23:16;;;;;;;25.30;16.52;;;;;;;2.72;74.81;100683.09;1711900;82;21206;-45
2021/01/06 00:25:45;;;;;;;21.82;15.25;;;;;;;2.74;74.77;100680.41;1720059;81;21177;-41
2021/01/06 00:28:17;;;;;;;19.62;14.90;;;;;;;2.72;74.74;100675.20;1718115;81;21168;-47
2021/01/06 00:30:48;;;;;;;22.58;15.85;;;;;;;2.71;74.70;100674.77;1716533;81;21173;-43
2021/01/06 00:33:19;;;;;;;21.57;16.48;;;;;;;2.73;74.70;100678.23;1718431;81;21184;-44
2021/01/06 00:35:55;;;;;;;24.07;16.60;;;;;;;2.74;74.78;100675.14;1737552;80;21186;-45
2021/01/06 00:38:25;;;;;;;22.60;16.80;;;;;;;2.75;74.77;100669.85;1742075;80;21164;-47
2021/01/06 00:40:53;;;;;;;24.75;15.58;;;;;;;2.77;74.71;100664.53;1740239;80;21168;-39
2021/01/06 00:43:21;;;;;;;20.20;15.08;;;;;;;2.78;74.65;100661.02;1740509;80;21228;-38
2021/01/06 00:45:49;;;;;;;23.70;15.88;;;;;;;2.79;74.68;100662.27;1746099;80;21130;-39
2021/01/06 00:48:16;;;;;;;21.73;15.65;;;;;;;2.82;74.70;100667.92;1736965;80;21604;-39
2021/01/06 00:50:44;;;;;;;22.32;16.30;;;;;;;2.82;74.70;100670.55;1705209;82;21199;-43
2021/01/06 00:53:26;;;;;;;21.62;16.52;;;;;;;2.85;74.62;100671.83;1746719;80;21165;-43
2021/01/06 00:55:56;;;;;;;22.87;15.93;;;;;;;2.84;74.61;100664.80;1727294;80;21208;-45
2021/01/06 00:58:24;;;;;;;22.93;16.93;;;;;;;2.83;74.59;100664.86;1721222;82;21180;-43
2021/01/06 01:00:54;;;;;;;24.60;18.25;;;;;;;2.80;74.52;100661.39;1717681;82;21184;-43
2021/01/06 01:03:23;;;;;;;25.25;15.60;;;;;;;2.78;74.55;100665.82;1711474;81;21672;-42
2021/01/06 01:05:53;;;;;;;26.40;18.27;;;;;;;2.78;74.57;100669.77;1714780;82;21188;-43
2021/01/06 01:08:20;;;;;;;25.20;18.40;;;;;;;2.76;74.55;100660.17;1740614;80;21226;-45
2021/01/06 01:10:49;;;;;;;20.55;15.58;;;;;;;2.76;74.57;100657.54;1745740;81;21141;-39
2021/01/06 01:13:21;;;;;;;24.52;16.93;;;;;;;2.79;74.55;100657.47;1715950;81;21189;-44
2021/01/06 01:15:53;;;;;;;24.27;17.10;;;;;;;2.81;74.54;100652.58;1735827;80;21153;-41
2021/01/06 01:18:28;;;;;;;23.27;15.30;;;;;;;2.87;74.47;100657.28;1801794;78;22944;-47
2021/01/06 01:20:57;;;;;;;22.82;15.40;;;;;;;2.81;74.47;100655.20;1777172;79;21137;-45
2021/01/06 01:23:27;;;;;;;23.57;16.65;;;;;;;2.82;74.41;100662.66;1774425;80;21118;-42
2021/01/06 01:25:56;;;;;;;23.62;16.82;;;;;;;2.82;74.42;100657.38;1781148;79;22014;-42
2021/01/06 01:28:25;;;;;;;22.17;16.27;;;;;;;2.83;74.50;100649.05;1782005;78;21121;-44
2021/01/06 01:30:53;;;;;;;24.23;17.85;;;;;;;2.84;74.44;100656.04;1779887;80;21134;-40
2021/01/06 01:33:23;;;;;;;26.93;17.02;;;;;;;2.84;74.47;100642.88;1749748;81;21573;-39
2021/01/06 01:35:53;;;;;;;26.60;17.98;;;;;;;2.82;74.45;100646.84;1742845;81;21122;-42
2021/01/06 01:38:26;;;;;;;22.42;16.45;;;;;;;2.84;74.45;100649.45;1721017;81;21166;-44
2021/01/06 01:41:01;;;;;;;27.95;18.02;;;;;;;2.81;74.46;100643.35;1710927;82;21146;-46
2021/01/06 01:43:29;;;;;;;21.27;16.00;;;;;;;2.81;74.55;100638.08;1712703;82;21173;-42
2021/01/06 01:46:03;;;;;;;24.25;16.20;;;;;;;2.83;74.56;100642.47;1716073;82;21193;-42
2021/01/06 01:48:43;;;;;;;22.20;16.27;;;;;;;2.84;74.54;100632.34;1713417;82;21156;-39
2021/01/06 01:51:28;;;;;;;24.67;16.23;;;;;;;2.82;74.60;100624.45;1712148;82;21148;-40
2021/01/06 01:54:03;;;;;;;25.82;17.20;;;;;;;2.86;74.55;100623.95;1709607;82;21174;-38
2021/01/06 01:56:37;;;;;;;18.60;13.95;;;;;;;2.88;74.40;100620.83;1712113;82;21163;-40
2021/01/06 01:59:07;;;;;;;26.10;16.37;;;;;;;2.91;74.37;100626.02;1705002;83;21588;-40
2021/01/06 02:01:35;;;;;;;20.90;16.50;;;;;;;2.90;74.37;100630.86;1701471;82;21130;-45
2021/01/06 02:04:10;;;;;;;22.35;16.12;;;;;;;2.89;74.40;100626.05;1728907;81;21162;-45
2021/01/06 02:06:44;;;;;;;21.60;15.65;;;;;;;2.88;74.40;100631.38;1710852;82;21169;-42
2021/01/06 02:09:23;;;;;;;22.85;16.00;;;;;;;2.90;74.41;100634.38;1709195;82;21133;-42
2021/01/06 02:12:02;;;;;;;21.48;15.43;;;;;;;2.91;74.37;100632.61;1695579;82;21133;-45
2021/01/06 02:14:34;;;;;;;24.90;16.37;;;;;;;2.90;74.35;100626.48;1704955;83;21161;-41
2021/01/06 02:17:11;;;;;;;27.50;17.17;;;;;;;2.89;74.36;100622.09;1676158;84;21602;-42
2021/01/06 02:19:44;;;;;;;24.25;18.17;;;;;;;2.89;74.38;100623.87;1692389;83;21138;-44
2021/01/06 02:22:17;;;;;;;27.67;18.62;;;;;;;2.90;74.35;100617.68;1699023;83;21136;-43
2021/01/06 02:24:46;;;;;;;25.52;17.62;;;;;;;2.92;74.29;100629.05;1740274;81;21132;-41
2021/01/06 02:27:14;;;;;;;30.43;19.57;;;;;;;2.92;74.26;100623.78;1718118;81;21150;-43
2021/01/06 02:29:41;;;;;;;29.90;20.45;;;;;;;2.94;74.18;100620.67;1737623;81;21149;-39
2021/01/06 02:32:09;;;;;;;27.40;19.75;;;;;;;2.94;74.17;100613.63;1742459;80;21134;-44
2021/01/06 02:34:38;;;;;;;26.97;19.75;;;;;;;2.93;74.21;100611.05;1742724;81;21839;-42
2021/01/06 02:37:06;;;;;;;26.97;19.87;;;;;;;2.93;74.17;100617.63;1740016;80;21141;-41
2021/01/06 02:39:34;;;;;;;31.23;21.07;;;;;;;2.90;74.25;100618.57;1739670;81;21161;-43
2021/01/06 02:42:02;;;;;;;29.65;20.62;;;;;;;2.90;74.23;100615.05;1738775;81;21186;-42
2021/01/06 02:44:29;;;;;;;26.85;18.42;;;;;;;2.92;74.21;100621.15;1740534;81;21163;-42
2021/01/06 02:46:57;;;;;;;32.58;20.52;;;;;;;2.93;74.22;100617.17;1740658;80;21111;-42
2021/01/06 02:49:25;;;;;;;28.45;20.25;;;;;;;2.93;74.15;100615.86;1703339;82;21158;-42
2021/01/06 02:52:07;;;;;;;33.67;22.10;;;;;;;2.95;74.17;100618.47;1743900;81;21676;-43
2021/01/06 02:54:36;;;;;;;29.32;20.43;;;;;;;2.96;74.21;100614.45;1717195;81;21165;-40
2021/01/06 02:57:04;;;;;;;35.25;21.52;;;;;;;2.97;74.15;100616.63;1712367;82;21589;-43
2021/01/06 02:59:42;;;;;;;32.40;22.13;;;;;;;2.96;74.10;100614.91;1718401;82;21270;-45
2021/01/06 03:02:15;;;;;;;28.85;20.00;;;;;;;2.96;74.09;100606.55;1692639;82;21182;-43
2021/01/06 03:04:50;;;;;;;33.23;21.80;;;;;;;2.95;73.97;100612.73;1714479;81;21623;-47
2021/01/06 03:07:18;;;;;;;29.30;20.40;;;;;;;2.94;73.93;100621.98;1714896;82;21546;-43
2021/01/06 03:09:45;;;;;;;34.03;23.30;;;;;;;2.93;73.95;100617.63;1719263;81;21569;-44
2021/01/06 03:12:17;;;;;;;36.00;23.38;;;;;;;2.91;73.93;100619.43;1717061;81;21186;-44
2021/01/06 03:14:44;;;;;;;28.25;20.02;;;;;;;2.88;73.97;100617.74;1717687;82;21177;-44
2021/01/06 03:17:14;;;;;;;29.20;20.57;;;;;;;2.92;74.04;100625.10;1715359;82;21157;-42
2021/01/06 03:19:45;;;;;;;33.23;21.62;;;;;;;2.95;74.01;100626.37;1704990;83;21182;-46
2021/01/06 03:22:15;;;;;;;33.35;21.50;;;;;;;2.94;74.00;100625.48;1698285;83;21646;-42
2021/01/06 03:24:53;;;;;;;27.35;20.70;;;;;;;2.96;74.00;100624.13;1702382;83;21177;-40
2021/01/06 03:27:22;;;;;;;31.02;21.70;;;;;;;2.96;73.94;100618.41;1677736;83;21153;-43
2021/01/06 03:29:50;;;;;;;29.23;22.05;;;;;;;2.97;73.95;100617.52;1672527;83;21188;-40
2021/01/06 03:32:27;;;;;;;32.15;21.80;;;;;;;2.99;73.96;100610.88;1722339;81;21166;-42
2021/01/06 03:35:02;;;;;;;30.95;20.62;;;;;;;2.98;73.96;100604.75;1722661;81;21110;-46
2021/01/06 03:37:37;;;;;;;32.40;19.17;;;;;;;2.98;73.82;100613.11;1728398;81;21121;-45
2021/01/06 03:40:33;;;;;;;31.15;20.02;;;;;;;2.96;73.92;100617.09;1662899;85;21152;-45
2021/01/06 03:43:00;;;;;;;32.38;19.52;;;;;;;2.98;73.83;100621.02;1708087;81;21153;-47
2021/01/06 03:45:29;;;;;;;29.48;19.67;;;;;;;2.98;73.83;100611.80;1729321;81;21161;-46
2021/01/06 03:48:31;;;;;;;30.12;20.60;;;;;;;2.99;73.88;100613.52;1695162;83;21142;-42
2021/01/06 03:51:07;;;;;;;30.57;20.20;;;;;;;2.99;73.81;100613.52;1672988;84;21566;-43
2021/01/06 03:53:41;;;;;;;32.08;20.48;;;;;;;3.00;73.88;100608.67;1677240;84;21153;-46
2021/01/06 03:56:22;;;;;;;33.75;21.80;;;;;;;3.00;73.88;100595.50;1645541;84;21569;-41
2021/01/06 03:59:04;;;;;;;30.68;20.17;;;;;;;2.98;73.89;100594.20;1716893;81;21142;-42
2021/01/06 04:01:44;;;;;;;29.07;19.70;;;;;;;3.01;73.98;100590.63;1722228;81;21761;-41
2021/01/06 04:04:20;;;;;;;36.98;20.85;;;;;;;3.02;74.19;100589.72;1722391;81;21145;-40
2021/01/06 04:06:50;;;;;;;30.60;20.88;;;;;;;3.04;73.99;100599.31;1719742;81;21605;-39
2021/01/06 04:09:22;;;;;;;29.82;19.70;;;;;;;3.05;73.89;100602.84;1660752;83;21139;-51
2021/01/06 04:12:15;;;;;;;30.10;20.88;;;;;;;3.05;74.18;100606.78;1675665;84;21163;-40
2021/01/06 04:14:42;;;;;;;35.33;21.23;;;;;;;3.04;74.31;100596.67;1679688;83;21326;-43
2021/01/06 04:17:27;;;;;;;32.53;20.37;;;;;;;3.08;74.41;100602.75;1680326;83;21187;-44
2021/01/06 04:20:05;;;;;;;30.25;19.45;;;;;;;3.11;74.46;100608.39;1671595;84;21214;-40
2021/01/06 04:22:47;;;;;;;30.17;19.67;;;;;;;3.12;74.67;100608.34;1673592;84;21145;-42
2021/01/06 04:25:34;;;;;;;32.25;21.35;;;;;;;3.15;74.68;100611.34;1666067;84;21149;-42
2021/01/06 04:28:07;;;;;;;31.33;19.95;;;;;;;3.13;74.61;100614.03;1706603;82;21173;-44
2021/01/06 04:30:49;;;;;;;30.60;19.17;;;;;;;3.15;74.58;100614.88;1708869;83;21148;-45
2021/01/06 04:33:24;;;;;;;27.35;18.70;;;;;;;3.17;74.45;100622.25;1709413;82;21141;-44
2021/01/06 04:35:53;;;;;;;29.37;19.65;;;;;;;3.19;74.47;100632.31;1701470;82;21176;-41
2021/01/06 04:38:28;;;;;;;28.85;19.82;;;;;;;3.21;74.43;100636.24;1660457;84;21165;-43
2021/01/06 04:41:01;;;;;;;30.05;19.60;;;;;;;3.23;74.40;100630.48;1696638;82;21165;-40
2021/01/06 04:44:37;;;;;;;32.45;21.17;;;;;;;3.29;74.42;100625.50;1795889;78;23127;-41
2021/01/06 04:47:56;;;;;;;32.20;19.82;;;;;;;3.27;74.36;100631.25;1778987;79;21125;-46
2021/01/06 04:50:53;;;;;;;28.32;18.98;;;;;;;3.30;74.29;100625.89;1762905;79;21129;-40
2021/01/06 04:53:34;;;;;;;29.00;20.05;;;;;;;3.30;74.22;100636.44;1731670;80;21170;-49
2021/01/06 04:56:48;;;;;;;26.37;17.80;;;;;;;3.30;74.16;100634.70;1701490;81;21705;-40
2021/01/06 04:59:27;;;;;;;31.68;18.77;;;;;;;3.30;74.16;100635.12;1713304;81;21168;-43
2021/01/06 05:02:08;;;;;;;31.15;19.42;;;;;;;3.32;74.06;100635.95;1723830;81;21181;-42
2021/01/06 05:05:01;;;;;;;29.25;18.42;;;;;;;3.31;74.06;100633.78;1706341;82;21173;-42
2021/01/06 05:08:10;;;;;;;28.27;17.67;;;;;;;3.32;73.98;100632.86;1703227;82;21150;-44
2021/01/06 05:10:57;;;;;;;26.35;18.62;;;;;;;3.34;73.93;100627.10;1711617;83;21168;-43
2021/01/06 05:13:49;;;;;;;29.85;18.10;;;;;;;3.35;73.87;100630.59;1704344;83;21209;-42
2021/01/06 05:16:39;;;;;;;30.48;19.62;;;;;;;3.34;73.79;100642.06;1700999;82;21161;-44
2021/01/06 05:19:23;;;;;;;23.52;16.05;;;;;;;3.33;73.72;100634.61;1705122;83;22184;-41
2021/01/06 05:21:52;;;;;;;29.57;19.57;;;;;;;3.34;73.79;100646.87;1709644;81;21155;-45
2021/01/06 05:24:33;;;;;;;28.30;17.42;;;;;;;3.36;73.73;100646.84;1693508;82;21677;-40
2021/01/06 05:27:15;;;;;;;29.60;17.75;;;;;;;3.36;73.75;100642.89;1710755;82;21667;-41
2021/01/06 05:29:47;;;;;;;30.20;19.10;;;;;;;3.36;73.75;100638.48;1713418;82;21181;-41
2021/01/06 05:32:27;;;;;;;29.67;19.20;;;;;;;3.38;73.77;100637.99;1708599;82;21165;-44
2021/01/06 05:35:18;;;;;;;33.60;19.45;;;;;;;3.39;73.66;100641.03;1609287;86;21176;-42
2021/01/06 05:37:55;;;;;;;31.50;15.68;;;;;;;3.39;73.69;100646.76;1627293;86;21671;-41
2021/01/06 05:40:22;;;;;;;29.70;17.92;;;;;;;3.42;73.65;100645.35;1634808;86;21400;-39
2021/01/06 05:43:04;;;;;;;31.15;18.62;;;;;;;3.41;73.63;100641.86;1644158;85;21357;-39
2021/01/06 05:45:54;;;;;;;32.30;19.20;;;;;;;3.40;73.65;100646.73;1630271;85;21231;-39
2021/01/06 05:48:34;;;;;;;29.30;19.30;;;;;;;3.40;73.69;100648.05;1638059;83;21168;-42
2021/01/06 05:51:32;;;;;;;39.45;27.17;;;;;;;3.47;73.69;100651.37;1782359;77;38765;-39
2021/01/06 05:54:16;;;;;;;34.33;19.52;;;;;;;3.44;73.75;100651.45;1745278;80;21138;-42
2021/01/06 05:57:12;;;;;;;29.12;17.48;;;;;;;3.57;73.50;100648.89;1772989;78;21105;-45
2021/01/06 05:59:51;;;;;;;28.57;18.98;;;;;;;3.59;73.75;100648.87;1780131;78;21145;-40
2021/01/06 06:02:56;;;;;;;29.20;18.90;;;;;;;3.59;73.54;100655.00;1774582;78;21145;-40
2021/01/06 06:06:04;;;;;;;27.27;17.92;;;;;;;3.58;73.48;100658.56;1774636;78;22055;-42
2021/01/06 06:08:53;;;;;;;25.90;16.65;;;;;;;3.57;73.42;100656.80;1770657;80;21156;-41
2021/01/06 06:12:08;;;;;;;27.37;17.80;;;;;;;3.57;73.46;100662.55;1773916;78;21176;-41
2021/01/06 06:15:25;;;;;;;23.95;16.30;;;;;;;3.58;73.47;100661.20;1776244;78;21106;-42
2021/01/06 06:18:24;;;;;;;26.05;17.27;;;;;;;3.58;73.51;100660.30;1675073;84;21466;-39
2021/01/06 06:21:53;;;;;;;29.02;17.55;;;;;;;3.58;73.48;100665.16;1761052;79;22968;-37
2021/01/06 06:24:44;;;;;;;25.40;16.93;;;;;;;3.55;73.54;100669.62;1724316;80;21153;-38
2021/01/06 06:27:38;;;;;;;26.20;17.05;;;;;;;3.55;73.60;100671.80;1729364;80;21635;-42
2021/01/06 06:30:26;;;;;;;30.32;18.62;;;;;;;3.54;73.58;100669.22;1727854;80;21527;-41
2021/01/06 06:32:53;;;;;;;24.37;16.25;;;;;;;3.54;73.59;100660.00;1730870;80;21145;-44
2021/01/06 06:35:32;;;;;;;28.90;17.40;;;;;;;3.54;73.61;100663.95;1727613;80;21857;-42
2021/01/06 06:38:04;;;;;;;28.98;17.07;;;;;;;3.57;73.59;100673.09;1743055;80;21140;-41
2021/01/06 06:41:04;;;;;;;26.45;17.60;;;;;;;3.55;73.59;100676.22;1732693;82;21141;-44
2021/01/06 06:43:44;;;;;;;32.10;17.40;;;;;;;3.53;73.65;100672.75;1711073;82;21605;-42
2021/01/06 06:46:47;;;;;;;29.15;17.07;;;;;;;3.54;73.67;100670.55;1704095;82;21161;-42
2021/01/06 06:49:47;;;;;;;33.60;18.27;;;;;;;3.54;73.63;100678.45;1709888;82;21169;-42
2021/01/06 06:52:33;;;;;;;26.42;16.82;;;;;;;3.56;73.64;100677.97;1706423;82;21118;-43
2021/01/06 06:55:31;;;;;;;29.35;17.90;;;;;;;3.57;73.68;100679.69;1711776;82;21629;-42
2021/01/06 06:58:31;;;;;;;26.23;17.42;;;;;;;3.56;73.66;100680.61;1711750;82;21153;-42
2021/01/06 07:00:59;;;;;;;28.85;18.77;;;;;;;3.56;73.75;100682.78;1712245;82;21649;-46
2021/01/06 07:03:28;;;;;;;25.92;16.37;;;;;;;3.57;73.76;100681.86;1665078;83;21126;-44
2021/01/06 07:06:00;;;;;;;32.20;18.85;;;;;;;3.58;73.78;100681.41;1709448;82;21157;-43
2021/01/06 07:08:38;;;;;;;30.62;19.05;;;;;;;3.58;73.80;100680.98;1658834;83;21181;-43
2021/01/06 07:11:25;;;;;;;29.05;17.77;;;;;;;3.60;73.80;100676.96;1709482;82;21114;-41
2021/01/06 07:13:58;;;;;;;34.27;19.77;;;;;;;3.59;73.79;100674.78;1717753;82;21153;-43
2021/01/06 07:16:33;;;;;;;29.63;17.17;;;;;;;3.60;73.88;100678.28;1713420;82;21676;-43
2021/01/06 07:19:27;;;;;;;31.15;18.73;;;;;;;3.59;73.97;100676.10;1682560;84;21573;-42
2021/01/06 07:22:21;;;;;;;29.98;17.62;;;;;;;3.61;74.01;100678.71;1613627;87;21184;-44
2021/01/06 07:25:28;;;;;;;25.97;17.07;;;;;;;3.67;74.03;100678.53;1793558;78;23148;-46
2021/01/06 07:27:58;;;;;;;26.50;15.93;;;;;;;3.66;74.04;100671.08;1779248;79;21150;-38
2021/01/06 07:30:44;;;;;;;26.40;15.78;;;;;;;3.67;73.96;100671.94;1728769;81;21160;-43
2021/01/06 07:33:35;;;;;;;29.82;16.48;;;;;;;3.69;73.97;100671.45;1718868;82;21153;-43
2021/01/06 07:36:26;;;;;;;29.18;17.45;;;;;;;3.71;73.95;100681.52;1722017;81;21164;-43
2021/01/06 07:38:53;;;;;;;28.10;17.75;;;;;;;3.71;73.94;100672.73;1727948;81;21165;-42
2021/01/06 07:41:21;;;;;;;30.57;15.13;;;;;;;3.70;73.95;100675.80;1731418;81;21142;-41
2021/01/06 07:44:08;;;;;;;28.77;16.48;;;;;;;3.72;73.96;100671.81;1737958;80;21166;-53
2021/01/06 07:46:52;;;;;;;26.48;16.23;;;;;;;3.73;73.94;100674.86;1688090;83;21614;-48
2021/01/06 07:49:34;;;;;;;24.25;15.38;;;;;;;3.75;73.92;100679.64;1690797;82;21146;-50
2021/01/06 07:52:08;;;;;;;26.57;16.30;;;;;;;3.75;74.07;100677.86;1731025;80;21129;-42
2021/01/06 07:54:40;;;;;;;25.85;16.52;;;;;;;3.76;74.05;100682.71;1700549;82;21166;-44
2021/01/06 07:57:35;;;;;;;28.47;17.65;;;;;;;3.79;74.07;100683.94;1712496;82;21130;-40
2021/01/06 08:00:08;;;;;;;26.10;16.23;;;;;;;3.82;74.04;100687.34;1727713;80;21231;-39
2021/01/06 08:05:33;;;;;;;23.95;16.37;;;;;;;3.93;74.05;100690.14;1763908;79;23424;-44
2021/01/06 08:08:07;;;;;;;25.92;16.65;;;;;;;3.91;73.97;100694.16;1732360;80;21150;-42
2021/01/06 08:10:37;;;;;;;20.85;14.20;;;;;;;3.93;73.91;100697.63;1736067;80;21569;-41
2021/01/06 08:13:18;;;;;;;27.02;17.07;;;;;;;3.94;73.89;100696.70;1735705;80;21146;-43
2021/01/06 08:15:50;;;;;;;23.98;16.50;;;;;;;3.95;73.85;100698.42;1734592;80;21126;-40
2021/01/06 08:18:53;;;;;;;22.90;15.58;;;;;;;3.96;73.86;100701.50;1742335;80;21110;-41
2021/01/06 08:21:49;;;;;;;25.50;15.60;;;;;;;3.98;73.80;100702.75;1737819;80;21641;-43
2021/01/06 08:24:28;;;;;;;26.75;16.00;;;;;;;3.99;73.81;100705.36;1736734;80;21164;-43
2021/01/06 08:26:58;;;;;;;22.73;14.93;;;;;;;4.02;73.86;100709.23;1732731;80;21126;-41
2021/01/06 08:29:32;;;;;;;25.55;16.12;;;;;;;4.04;73.80;100709.20;1735187;80;21173;-42
2021/01/06 08:32:14;;;;;;;24.40;15.13;;;;;;;4.05;73.93;100710.45;1730354;80;21141;-43
2021/01/06 08:34:57;;;;;;;25.75;16.12;;;;;;;4.11;73.92;100709.44;1731464;80;21117;-40
2021/01/06 08:37:33;;;;;;;28.15;15.72;;;;;;;4.22;73.84;100713.95;1720928;80;21146;-43
2021/01/06 08:40:02;;;;;;;23.67;15.23;;;;;;;4.30;73.65;100707.98;1739223;80;21105;-42
2021/01/06 08:42:42;;;;;;;23.22;13.83;;;;;;;4.37;73.53;100707.36;1730555;80;21218;-41
2021/01/06 08:45:22;;;;;;;22.48;14.98;;;;;;;4.42;73.34;100706.77;1714518;82;21161;-42
2021/01/06 08:48:42;;;;;;;22.37;13.75;;;;;;;4.45;73.11;100704.50;1710767;82;21587;-44
2021/01/06 08:52:28;;;;;;;20.52;14.20;;;;;;;4.45;73.00;100707.14;1631228;86;21200;-39
2021/01/06 09:05:56;;;;;;;21.70;13.58;;;;;;;4.52;72.73;100703.41;1833598;76;22831;-41
2021/01/06 09:08:39;;;;;;;22.30;15.10;;;;;;;4.48;72.76;100705.25;1803854;78;21132;-41
2021/01/06 09:11:27;;;;;;;23.00;13.22;;;;;;;4.50;72.77;100704.77;1866377;75;21319;-38
2021/01/06 09:14:13;;;;;;;19.92;13.83;;;;;;;4.50;72.83;100706.08;1864070;75;21114;-41
2021/01/06 09:16:47;;;;;;;20.20;13.68;;;;;;;4.53;72.85;100702.48;1834022;75;21101;-41
2021/01/06 09:19:30;;;;;;;24.63;15.05;;;;;;;4.55;72.75;100707.27;1859905;75;21105;-37
2021/01/06 09:21:57;;;;;;;21.12;13.88;;;;;;;4.54;72.74;100707.73;1862114;75;21093;-41
2021/01/06 09:24:32;;;;;;;26.12;14.98;;;;;;;4.55;72.68;100703.30;1862987;75;21125;-42
2021/01/06 09:27:24;;;;;;;24.25;15.60;;;;;;;4.57;72.63;100704.13;1815228;78;21420;-38
2021/01/06 09:29:52;;;;;;;22.55;15.30;;;;;;;4.59;72.64;100698.36;1687130;82;21162;-43
2021/01/06 09:32:25;;;;;;;24.47;15.35;;;;;;;4.60;72.54;100701.86;1722504;82;21132;-40
2021/01/06 09:34:58;;;;;;;24.32;15.43;;;;;;;4.62;72.63;100701.36;1766236;79;21583;-40
2021/01/06 09:37:28;;;;;;;22.17;14.63;;;;;;;4.63;72.56;100702.61;1741735;80;21144;-40
2021/01/06 09:40:01;;;;;;;24.43;15.43;;;;;;;4.62;72.56;100702.22;1770821;79;21187;-39
2021/01/06 09:42:28;;;;;;;24.92;14.70;;;;;;;4.63;72.58;100704.39;1734773;80;21888;-38
2021/01/06 09:44:56;;;;;;;23.18;15.15;;;;;;;4.64;72.57;100700.40;1713498;81;21180;-38
2021/01/06 09:47:35;;;;;;;21.42;14.73;;;;;;;4.71;72.64;100697.09;1796177;77;23063;-41
2021/01/06 09:50:20;;;;;;;21.70;14.75;;;;;;;4.66;72.64;100691.09;1745297;79;21863;-40
2021/01/06 09:52:49;;;;;;;23.30;13.95;;;;;;;4.67;72.71;100685.77;1767098;79;21998;-42
2021/01/06 09:55:20;;;;;;;22.55;14.85;;;;;;;4.68;72.66;100682.66;1724219;81;21573;-40
2021/01/06 09:57:55;;;;;;;28.25;16.30;;;;;;;4.68;72.66;100685.30;1692120;82;21161;-40
2021/01/06 10:00:49;;;;;;;24.32;14.75;;;;;;;4.67;72.69;100681.80;1718244;82;21133;-40
2021/01/06 10:03:17;;;;;;;26.07;16.45;;;;;;;4.70;72.72;100684.81;1725393;81;21282;-40
2021/01/06 10:06:24;;;;;;;19.57;14.03;;;;;;;4.71;72.66;100679.92;1719873;82;21605;-40
2021/01/06 10:09:20;;;;;;;19.50;12.58;;;;;;;4.68;72.70;100682.20;1741724;81;21537;-42
2021/01/06 10:12:18;;;;;;;22.60;13.95;;;;;;;4.66;72.71;100687.13;1671253;84;21154;-43
2021/01/06 10:15:23;;;;;;;24.00;14.60;;;;;;;4.67;72.72;100683.59;1661459;84;21176;-41
2021/01/06 10:17:58;;;;;;;26.90;14.83;;;;;;;4.68;72.68;100687.95;1643028;84;21573;-43
2021/01/06 10:20:49;;;;;;;24.55;15.80;;;;;;;4.67;72.70;100688.41;1661288;84;21240;-45
2021/01/06 10:23:50;;;;;;;25.43;15.40;;;;;;;4.69;72.69;100693.66;1663194;85;21134;-43
2021/01/06 10:26:32;;;;;;;22.85;15.72;;;;;;;4.70;72.71;100692.27;1663905;84;21243;-40
2021/01/06 10:29:16;;;;;;;24.27;14.53;;;;;;;4.71;72.67;100687.41;1663591;85;21153;-44
2021/01/06 10:32:12;;;;;;;23.40;14.40;;;;;;;4.73;72.70;100699.23;1662140;84;21166;-44
2021/01/06 10:34:49;;;;;;;21.95;15.05;;;;;;;4.73;72.71;100694.81;1661157;84;21185;-46
2021/01/06 10:37:27;;;;;;;24.65;16.32;;;;;;;4.76;72.67;100705.74;1662134;84;21154;-43
2021/01/06 10:39:58;;;;;;;22.58;13.95;;;;;;;4.77;72.62;100700.88;1660076;84;21194;-42
2021/01/06 10:42:32;;;;;;;23.57;15.75;;;;;;;4.76;72.60;100697.81;1659592;84;21255;-46
2021/01/06 10:45:12;;;;;;;24.70;14.75;;;;;;;4.75;72.63;100696.95;1697157;83;21580;-40
2021/01/06 10:47:50;;;;;;;23.12;14.53;;;;;;;4.77;72.65;100701.74;1679849;83;21165;-38
2021/01/06 10:50:32;;;;;;;24.27;15.45;;;;;;;4.76;72.61;100699.13;1731791;81;21621;-40
2021/01/06 10:53:25;;;;;;;21.07;14.25;;;;;;;4.79;72.65;100704.35;1725473;81;21162;-41
2021/01/06 10:56:10;;;;;;;19.90;14.98;;;;;;;4.79;72.57;100701.71;1727400;81;21113;-43
2021/01/06 10:58:57;;;;;;;23.38;14.68;;;;;;;4.78;72.55;100704.78;1659611;84;21617;-39
2021/01/06 11:01:48;;;;;;;19.45;14.07;;;;;;;4.77;72.31;100710.13;1728832;81;21602;-39
2021/01/06 11:04:57;;;;;;;19.70;13.72;;;;;;;4.73;72.45;100711.98;1698512;81;21118;-40
2021/01/06 11:07:47;;;;;;;20.82;13.58;;;;;;;4.74;72.58;100715.52;1728638;81;21146;-40
2021/01/06 11:10:31;;;;;;;23.05;13.85;;;;;;;4.76;72.54;100709.70;1727806;81;21134;-41
2021/01/06 11:13:41;;;;;;;27.22;17.30;;;;;;;4.78;72.43;100709.20;1685275;83;21125;-41
2021/01/06 11:16:16;;;;;;;20.25;14.18;;;;;;;4.78;72.45;100713.17;1725307;81;21142;-42
2021/01/06 11:18:47;;;;;;;22.30;15.43;;;;;;;4.80;72.51;100710.49;1727796;81;21142;-43
2021/01/06 11:21:21;;;;;;;19.40;14.80;;;;;;;4.80;72.48;100703.89;1723554;81;21181;-42
2021/01/06 11:23:59;;;;;;;19.55;14.55;;;;;;;4.80;72.48;100704.75;1698215;81;21154;-40
2021/01/06 11:26:45;;;;;;;18.57;13.78;;;;;;;4.83;72.47;100700.67;1725828;81;21822;-44
2021/01/06 11:29:27;;;;;;;24.20;14.90;;;;;;;4.83;72.45;100702.00;1724378;81;21142;-42
2021/01/06 11:32:19;;;;;;;20.95;14.45;;;;;;;4.86;72.40;100702.36;1695064;81;21125;-44
2021/01/06 11:34:48;;;;;;;;;;;;;;;4.87;72.35;100697.50;1729012;81;21165;-42
2021/01/06 11:37:37;;;;;;;21.57;15.07;;;;;;;4.88;72.33;100692.15;1703564;81;20166;-52
2021/01/06 11:40:25;;;;;;;21.90;14.45;;;;;;;4.89;72.33;100689.05;1729215;81;21150;-42
2021/01/06 11:42:58;;;;;;;24.55;16.23;;;;;;;4.87;72.39;100683.83;1723063;81;21178;-41
2021/01/06 11:45:26;;;;;;;22.20;15.53;;;;;;;4.89;72.48;100685.97;1727403;81;21569;-41
2021/01/06 11:48:06;;;;;;;25.00;17.60;;;;;;;4.89;72.43;100691.25;1705900;81;21561;-44
2021/01/06 11:50:45;;;;;;;25.40;15.83;;;;;;;4.90;72.47;100683.72;1726319;81;21147;-41
2021/01/06 11:53:29;;;;;;;21.97;13.55;;;;;;;4.94;72.44;100687.16;1734380;81;21149;-41
2021/01/06 11:56:23;;;;;;;22.05;14.50;;;;;;;4.93;72.42;100688.91;1726896;81;21157;-47
2021/01/06 11:59:32;;;;;;;25.35;15.55;;;;;;;4.93;72.38;100683.62;1732189;81;21176;-42
2021/01/06 12:02:22;;;;;;;21.90;14.05;;;;;;;4.95;72.32;100692.83;1737177;82;21862;-42
2021/01/06 12:05:24;;;;;;;27.45;15.90;;;;;;;4.93;72.37;100692.87;1737092;81;21621;-42
2021/01/06 12:08:17;;;;;;;22.80;14.87;;;;;;;4.94;72.37;100697.26;1673815;84;21165;-42
2021/01/06 12:11:04;;;;;;;24.45;14.50;;;;;;;4.93;72.37;100695.97;1736150;81;21121;-41
2021/01/06 12:14:25;;;;;;;27.60;16.42;;;;;;;4.92;72.40;100696.90;1734231;81;21133;-42
2021/01/06 12:17:24;;;;;;;28.98;16.23;;;;;;;4.92;72.40;100698.22;1675637;83;21194;-42
2021/01/06 12:20:22;;;;;;;22.87;14.50;;;;;;;4.91;72.40;100704.41;1671344;84;21157;-44
2021/01/06 12:23:18;;;;;;;23.83;15.35;;;;;;;4.88;72.44;100706.69;1680389;83;21607;-41
2021/01/06 12:25:54;;;;;;;26.00;15.13;;;;;;;4.93;72.59;100698.16;1797207;78;23103;-41
2021/01/06 12:28:48;;;;;;;20.23;13.62;;;;;;;4.93;72.63;100702.58;1777240;79;21164;-43
2021/01/06 12:31:21;;;;;;;23.50;14.28;;;;;;;4.94;72.62;100704.33;1741956;81;21153;-43